createdAt,value
2022-09-07T00:01:47.631Z,3.92
2022-09-07T00:03:49.388Z,5.28
2022-09-07T00:05:52.087Z,6.18
2022-09-07T00:07:54.591Z,6.70
2022-09-07T00:09:56.228Z,6.93
2022-09-07T00:11:57.915Z,4.47
2022-09-07T00:13:59.696Z,3.92
2022-09-07T00:16:28.699Z,4.10
2022-09-07T00:18:31.494Z,6.53
2022-09-07T00:20:33.296Z,11.88
2022-09-07T00:22:35.260Z,5.10
2022-09-07T00:24:36.972Z,5.50
2022-09-07T00:26:38.846Z,5.57
2022-09-07T00:28:40.934Z,5.72
2022-09-07T00:30:43.057Z,3.78
2022-09-07T00:32:44.764Z,6.05
2022-09-07T00:34:46.418Z,6.03
2022-09-07T00:36:48.109Z,4.07
2022-09-07T00:38:50.138Z,4.03
2022-09-07T00:40:51.771Z,6.18
2022-09-07T00:42:53.496Z,4.57
2022-09-07T00:45:10.033Z,5.10
2022-09-07T00:47:26.119Z,10.52
2022-09-07T00:51:53.568Z,4.72
2022-09-07T00:53:59.363Z,5.57
2022-09-07T00:56:01.627Z,8.63
2022-09-07T00:58:03.875Z,4.78
2022-09-07T01:00:06.136Z,6.68
2022-09-07T01:02:08.398Z,4.40
2022-09-07T01:04:10.178Z,3.70
2022-09-07T01:06:17.069Z,5.45
2022-09-07T01:08:18.770Z,5.93
2022-09-07T01:10:24.228Z,8.00
2022-09-07T01:12:25.868Z,5.30
2022-09-07T01:14:33.890Z,7.50
2022-09-07T01:16:45.417Z,5.60
2022-09-07T01:18:54.911Z,5.45
2022-09-07T01:21:32.083Z,4.97
2022-09-07T01:23:55.036Z,4.35
2022-09-07T01:26:36.229Z,6.25
2022-09-07T01:28:38.951Z,5.10
2022-09-07T01:30:48.962Z,8.27
2022-09-07T01:33:12.697Z,7.70
2022-09-07T01:35:43.512Z,5.35
2022-09-07T01:38:25.598Z,3.25
2022-09-07T01:41:04.779Z,6.32
2022-09-07T01:43:23.513Z,4.95
2022-09-07T01:45:29.233Z,4.97
2022-09-07T01:47:46.604Z,3.63
2022-09-07T01:49:55.291Z,11.32
2022-09-07T01:52:01.247Z,9.85
2022-09-07T01:54:33.042Z,10.30
2022-09-07T01:56:41.923Z,9.23
2022-09-07T01:58:47.470Z,10.33
2022-09-07T02:00:57.615Z,9.60
2022-09-07T02:03:25.493Z,8.50
2022-09-07T02:05:33.843Z,7.38
2022-09-07T02:08:04.777Z,9.63
2022-09-07T02:10:33.152Z,8.35
2022-09-07T02:12:39.096Z,7.70
2022-09-07T02:14:44.013Z,11.85
2022-09-07T02:17:05.599Z,8.68
2022-09-07T02:19:14.176Z,8.18
2022-09-07T02:21:20.811Z,7.90
2022-09-07T02:23:25.710Z,9.70
2022-09-07T02:25:32.681Z,15.25
2022-09-07T02:27:42.365Z,7.72
2022-09-07T02:29:44.052Z,8.90
2022-09-07T02:31:45.876Z,9.57
2022-09-07T02:33:47.763Z,13.13
2022-09-07T02:35:49.414Z,5.70
2022-09-07T02:37:52.639Z,9.05
2022-09-07T02:39:54.749Z,15.27
2022-09-07T02:41:56.522Z,9.00
2022-09-07T02:43:58.378Z,8.40
2022-09-07T02:46:30.448Z,9.50
2022-09-07T02:48:45.173Z,9.02
2022-09-07T02:50:56.296Z,10.23
2022-09-07T02:53:13.569Z,6.15
2022-09-07T02:55:37.924Z,12.02
2022-09-07T02:58:00.833Z,9.30
2022-09-07T03:00:08.536Z,9.00
2022-09-07T03:02:20.557Z,10.77
2022-09-07T03:04:26.039Z,7.22
2022-09-07T03:06:34.646Z,8.00
2022-09-07T03:08:44.370Z,9.10
2022-09-07T03:12:49.194Z,6.90
2022-09-07T03:14:50.730Z,8.77
2022-09-07T03:16:55.043Z,9.20
2022-09-07T03:18:56.582Z,19.83
2022-09-07T03:20:58.147Z,13.07
2022-09-07T03:22:59.734Z,13.25
2022-09-07T03:25:01.726Z,8.27
2022-09-07T03:27:03.310Z,14.00
2022-09-07T03:29:04.828Z,18.77
2022-09-07T03:31:06.485Z,16.08
2022-09-07T03:33:08.082Z,34.88
2022-09-07T03:35:10.284Z,28.55
2022-09-07T03:37:11.925Z,38.53
2022-09-07T03:39:14.001Z,53.85
2022-09-07T03:41:15.589Z,100.43
2022-09-07T03:43:17.723Z,119.00
2022-09-07T03:45:19.293Z,376.08
2022-09-07T03:47:20.854Z,244.50
2022-09-07T03:49:22.419Z,211.52
2022-09-07T03:51:23.971Z,162.93
2022-09-07T03:53:25.714Z,138.35
2022-09-07T03:55:27.292Z,80.88
2022-09-07T03:57:28.837Z,42.97
2022-09-07T03:59:30.384Z,25.48
2022-09-07T04:01:32.089Z,20.48
2022-09-07T04:03:33.798Z,22.13
2022-09-07T04:05:35.350Z,29.15
2022-09-07T04:07:36.886Z,21.50
2022-09-07T04:09:38.465Z,16.02
2022-09-07T04:11:42.942Z,10.23
2022-09-07T04:13:45.513Z,12.52
2022-09-07T04:15:49.051Z,16.25
2022-09-07T04:17:53.936Z,8.48
2022-09-07T04:19:55.856Z,14.60
2022-09-07T04:21:57.446Z,13.00
2022-09-07T04:23:59.113Z,12.90
2022-09-07T04:26:00.696Z,11.57
2022-09-07T04:28:02.603Z,7.80
2022-09-07T04:30:04.263Z,11.32
2022-09-07T04:32:05.859Z,15.30
2022-09-07T04:34:07.421Z,9.48
2022-09-07T04:36:09.008Z,12.52
2022-09-07T04:38:15.133Z,10.95
2022-09-07T04:40:16.929Z,8.02
2022-09-07T04:42:18.701Z,9.75
2022-09-07T04:44:20.239Z,11.68
2022-09-07T04:46:24.858Z,10.73
2022-09-07T04:48:26.477Z,26.13
2022-09-07T04:50:28.065Z,14.50
2022-09-07T04:52:29.616Z,9.90
2022-09-07T04:54:31.185Z,17.85
2022-09-07T04:56:33.159Z,8.68
2022-09-07T04:58:34.746Z,8.75
2022-09-07T05:00:39.247Z,6.55
2022-09-07T05:02:40.862Z,5.75
2022-09-07T05:04:42.589Z,9.82
2022-09-07T05:06:44.217Z,12.80
2022-09-07T05:08:48.560Z,9.85
2022-09-07T05:10:54.189Z,9.48
2022-09-07T05:12:55.774Z,7.07
2022-09-07T05:14:57.781Z,5.55
2022-09-07T05:16:59.422Z,6.57
2022-09-07T05:19:03.153Z,7.70
2022-09-07T05:21:28.798Z,9.15
2022-09-07T05:23:30.438Z,6.82
2022-09-07T05:25:32.959Z,5.53
2022-09-07T05:27:34.526Z,7.10
2022-09-07T05:31:58.016Z,7.32
2022-09-07T05:36:22.031Z,8.38
2022-09-07T05:38:24.489Z,7.35
2022-09-07T05:40:26.079Z,7.35
2022-09-07T05:42:27.762Z,9.75
2022-09-07T05:44:46.299Z,9.40
2022-09-07T05:46:48.219Z,5.63
2022-09-07T05:48:49.991Z,6.78
2022-09-07T05:50:52.780Z,7.25
2022-09-07T05:52:54.381Z,8.82
2022-09-07T05:55:07.420Z,10.50
2022-09-07T05:57:17.534Z,13.65
2022-09-07T05:59:19.058Z,8.00
2022-09-07T06:01:20.649Z,16.58
2022-09-07T06:03:22.327Z,11.30
2022-09-07T06:05:24.018Z,10.38
2022-09-07T06:07:25.590Z,10.70
2022-09-07T06:09:30.345Z,11.77
2022-09-07T06:11:32.129Z,6.68
2022-09-07T06:13:34.247Z,10.13
2022-09-07T06:15:35.833Z,8.63
2022-09-07T06:17:37.416Z,8.57
2022-09-07T06:19:38.976Z,10.15
2022-09-07T06:21:40.650Z,9.90
2022-09-07T06:23:43.581Z,6.70
2022-09-07T06:25:49.199Z,6.82
2022-09-07T06:27:50.817Z,8.75
2022-09-07T06:29:52.350Z,9.25
2022-09-07T06:34:15.405Z,8.25
2022-09-07T06:36:17.724Z,5.75
2022-09-07T06:38:19.244Z,10.45
2022-09-07T06:40:21.412Z,7.43
2022-09-07T06:42:23.026Z,9.18
2022-09-07T06:44:24.596Z,7.47
2022-09-07T06:48:47.885Z,9.65
2022-09-07T06:51:01.817Z,11.65
2022-09-07T06:55:27.684Z,16.48
2022-09-07T06:57:29.304Z,9.02
2022-09-07T06:59:30.885Z,14.90
2022-09-07T07:01:33.858Z,10.88
2022-09-07T07:03:35.882Z,8.50
2022-09-07T07:05:38.346Z,11.48
2022-09-07T07:07:39.904Z,10.45
2022-09-07T07:09:41.898Z,11.43
2022-09-07T07:11:44.761Z,12.18
2022-09-07T07:13:46.338Z,9.93
2022-09-07T07:15:47.942Z,8.38
2022-09-07T07:17:58.036Z,9.05
2022-09-07T07:20:00.606Z,8.05
2022-09-07T07:22:18.343Z,10.07
2022-09-07T07:24:23.765Z,12.57
2022-09-07T07:26:26.858Z,9.45
2022-09-07T07:30:57.113Z,14.68
2022-09-07T07:32:59.049Z,11.00
2022-09-07T07:35:01.648Z,10.88
2022-09-07T07:37:03.151Z,18.83
2022-09-07T07:39:05.287Z,9.82
2022-09-07T07:43:28.574Z,12.10
2022-09-07T07:47:51.757Z,8.43
2022-09-07T07:50:30.723Z,6.53
2022-09-07T07:54:38.029Z,12.32
2022-09-07T07:56:39.572Z,10.43
2022-09-07T07:58:45.236Z,8.07
2022-09-07T08:00:56.180Z,11.73
2022-09-07T08:02:58.133Z,7.97
2022-09-07T08:04:59.670Z,7.50
2022-09-07T08:07:08.659Z,8.00
2022-09-07T08:09:12.143Z,9.70
2022-09-07T08:11:19.138Z,9.98
2022-09-07T08:13:21.546Z,8.73
2022-09-07T08:15:23.237Z,9.40
2022-09-07T08:17:24.755Z,9.93
2022-09-07T08:19:26.854Z,9.50
2022-09-07T08:21:28.448Z,9.40
2022-09-07T08:23:31.746Z,4.60
2022-09-07T08:25:34.171Z,8.50
2022-09-07T08:27:35.763Z,13.50
2022-09-07T08:29:37.417Z,9.05
2022-09-07T08:31:39.046Z,8.98
2022-09-07T08:33:40.897Z,8.25
2022-09-07T08:35:42.638Z,9.20
2022-09-07T08:37:44.134Z,7.72
2022-09-07T08:39:45.678Z,7.50
2022-09-07T08:42:03.105Z,8.32
2022-09-07T08:44:13.685Z,7.75
2022-09-07T08:46:41.180Z,10.02
2022-09-07T08:48:43.009Z,10.20
2022-09-07T08:50:57.675Z,8.07
2022-09-07T08:53:09.030Z,6.47
2022-09-07T08:55:17.629Z,7.43
2022-09-07T08:57:23.552Z,7.40
2022-09-07T08:59:27.826Z,8.43
2022-09-07T09:01:34.501Z,9.98
2022-09-07T09:04:15.349Z,6.75
2022-09-07T09:06:18.718Z,8.25
2022-09-07T09:08:59.019Z,7.38
2022-09-07T09:11:10.180Z,8.98
2022-09-07T09:13:11.629Z,9.30
2022-09-07T09:15:21.285Z,7.38
2022-09-07T09:17:22.760Z,8.05
2022-09-07T09:19:49.229Z,10.70
2022-09-07T09:22:02.454Z,11.13
2022-09-07T09:24:19.257Z,6.80
2022-09-07T09:26:39.939Z,9.00
2022-09-07T09:28:41.557Z,10.45
2022-09-07T09:30:43.100Z,6.63
2022-09-07T09:32:46.492Z,12.23
2022-09-07T09:35:05.807Z,9.65
2022-09-07T09:37:11.543Z,6.30
2022-09-07T09:39:36.841Z,7.43
2022-09-07T09:41:39.158Z,7.90
2022-09-07T09:43:40.666Z,5.63
2022-09-07T09:48:10.970Z,7.85
2022-09-07T09:52:51.582Z,5.32
2022-09-07T09:55:03.387Z,4.82
2022-09-07T09:57:38.080Z,4.53
2022-09-07T09:59:57.070Z,5.75
2022-09-07T10:04:24.792Z,15.73
2022-09-07T10:06:26.586Z,7.60
2022-09-07T10:08:30.758Z,6.93
2022-09-07T10:10:32.440Z,20.58
2022-09-07T10:12:36.047Z,11.77
2022-09-07T10:14:43.993Z,5.90
2022-09-07T10:16:46.145Z,6.45
2022-09-07T10:18:58.146Z,9.55
2022-09-07T10:21:15.970Z,16.42
2022-09-07T10:23:24.339Z,12.05
2022-09-07T10:25:41.635Z,22.98
2022-09-07T10:27:45.994Z,36.83
2022-09-07T10:29:47.578Z,26.83
2022-09-07T10:32:07.831Z,14.25
2022-09-07T10:34:27.231Z,7.55
2022-09-07T10:36:42.974Z,8.55
2022-09-07T10:39:11.013Z,13.75
2022-09-07T10:41:12.607Z,9.77
2022-09-07T10:43:38.961Z,7.88
2022-09-07T10:49:08.265Z,7.82
2022-09-07T10:51:16.860Z,6.95
2022-09-07T10:53:42.064Z,8.90
2022-09-07T10:56:08.231Z,10.90
2022-09-07T10:58:18.830Z,5.05
2022-09-07T11:00:21.579Z,7.00
2022-09-07T11:05:38.493Z,7.20
2022-09-07T11:07:59.014Z,8.57
2022-09-07T11:10:10.616Z,5.45
2022-09-07T11:12:18.933Z,7.22
2022-09-07T11:14:22.159Z,7.78
2022-09-07T11:16:56.278Z,6.45
2022-09-07T11:19:35.034Z,5.90
2022-09-07T11:21:56.085Z,4.55
2022-09-07T11:23:49.533Z,6.85
2022-09-07T11:26:05.611Z,6.80
2022-09-07T11:28:26.600Z,5.80
2022-09-07T11:30:34.359Z,5.53
2022-09-07T11:32:37.830Z,7.57
2022-09-07T11:34:45.138Z,4.03
2022-09-07T11:37:15.919Z,3.63
2022-09-07T11:39:23.793Z,5.28
2022-09-07T11:41:28.950Z,6.13
2022-09-07T11:43:35.669Z,6.70
2022-09-07T11:45:43.583Z,7.97
2022-09-07T11:47:49.280Z,7.03
2022-09-07T11:49:59.029Z,6.32
2022-09-07T11:52:05.690Z,6.25
2022-09-07T11:54:17.809Z,5.63
2022-09-07T11:56:36.375Z,4.38
2022-09-07T11:59:08.618Z,11.02
2022-09-07T12:01:23.041Z,4.45
2022-09-07T12:03:38.166Z,5.55
2022-09-07T12:05:52.111Z,6.15
2022-09-07T12:08:04.866Z,6.90
2022-09-07T12:10:37.856Z,7.82
2022-09-07T12:12:47.987Z,6.60
2022-09-07T12:15:12.394Z,10.20
2022-09-07T12:17:26.958Z,4.60
2022-09-07T12:19:28.684Z,9.13
2022-09-07T12:21:40.588Z,7.07
2022-09-07T12:23:46.001Z,5.70
2022-09-07T12:25:49.088Z,10.95
2022-09-07T12:27:50.710Z,7.68
2022-09-07T12:29:58.035Z,8.18
2022-09-07T12:32:53.708Z,6.40
2022-09-07T12:34:32.031Z,8.07
2022-09-07T12:36:39.852Z,7.25
2022-09-07T12:39:00.519Z,5.00
2022-09-07T12:41:21.592Z,4.00
2022-09-07T12:43:23.020Z,5.63
2022-09-07T12:45:30.507Z,4.65
2022-09-07T12:47:32.119Z,5.43
2022-09-07T12:50:06.483Z,3.95
2022-09-07T12:52:21.525Z,7.00
2022-09-07T12:54:44.889Z,7.80
2022-09-07T12:56:46.639Z,6.50
2022-09-07T12:58:51.238Z,8.27
2022-09-07T13:01:05.261Z,6.90
2022-09-07T13:03:51.903Z,4.63
2022-09-07T13:05:59.478Z,7.18
2022-09-07T13:08:22.135Z,7.03
2022-09-07T13:10:31.120Z,5.45
2022-09-07T13:14:57.621Z,4.85
2022-09-07T13:17:38.747Z,5.28
2022-09-07T13:20:01.132Z,10.02
2022-09-07T13:22:02.831Z,7.78
2022-09-07T13:24:46.426Z,6.53
2022-09-07T13:27:33.109Z,7.78
2022-09-07T13:29:49.561Z,6.07
2022-09-07T13:32:15.834Z,10.90
2022-09-07T13:34:32.591Z,4.40
2022-09-07T13:37:04.808Z,5.28
2022-09-07T13:39:09.677Z,6.05
2022-09-07T13:41:16.667Z,8.27
2022-09-07T13:43:20.906Z,6.60
2022-09-07T13:45:48.672Z,6.18
2022-09-07T13:48:14.460Z,10.18
2022-09-07T13:50:24.152Z,5.72
2022-09-07T13:52:33.759Z,4.85
2022-09-07T13:54:47.712Z,3.92
2022-09-07T13:57:26.348Z,8.52
2022-09-07T13:59:31.178Z,8.15
2022-09-07T14:01:33.009Z,7.13
2022-09-07T14:03:55.367Z,3.10
2022-09-07T14:06:22.206Z,5.40
2022-09-07T14:08:28.399Z,4.68
2022-09-07T14:10:30.010Z,4.55
2022-09-07T14:12:31.532Z,6.05
2022-09-07T14:14:33.386Z,10.85
2022-09-07T14:16:35.704Z,6.80
2022-09-07T14:18:39.710Z,4.72
2022-09-07T14:20:48.522Z,5.75
2022-09-07T14:22:53.496Z,3.92
2022-09-07T14:24:59.857Z,6.78
2022-09-07T14:27:01.967Z,6.35
2022-09-07T14:29:03.490Z,7.50
2022-09-07T14:31:06.116Z,7.00
2022-09-07T14:33:17.428Z,7.18
2022-09-07T14:35:21.907Z,9.45
2022-09-07T14:37:23.995Z,8.27
2022-09-07T14:39:26.415Z,12.15
2022-09-07T14:41:32.128Z,6.80
2022-09-07T14:43:52.077Z,5.25
2022-09-07T14:45:53.715Z,8.93
2022-09-07T14:47:56.377Z,7.97
2022-09-07T14:50:05.719Z,6.25
2022-09-07T14:52:07.435Z,8.60
2022-09-07T14:54:18.794Z,7.20
2022-09-07T14:56:22.578Z,11.43
2022-09-07T14:58:24.683Z,7.90
2022-09-07T15:00:31.389Z,4.95
2022-09-07T15:02:37.464Z,4.72
2022-09-07T15:04:39.061Z,8.35
2022-09-07T15:09:07.046Z,4.28
2022-09-07T15:13:35.929Z,8.70
2022-09-07T15:15:40.994Z,5.82
2022-09-07T15:17:43.112Z,5.72
2022-09-07T15:19:45.188Z,6.05
2022-09-07T15:21:46.760Z,8.18
2022-09-07T15:23:50.366Z,7.40
2022-09-07T15:25:53.540Z,8.15
2022-09-07T15:27:55.625Z,8.50
2022-09-07T15:29:57.134Z,8.68
2022-09-07T15:32:03.933Z,9.70
2022-09-07T15:34:26.861Z,7.85
2022-09-07T15:36:28.800Z,6.28
2022-09-07T15:41:20.690Z,5.95
2022-09-07T15:43:20.660Z,8.13
2022-09-07T15:45:24.617Z,8.85
2022-09-07T15:49:51.415Z,9.00
2022-09-07T15:52:08.671Z,6.18
2022-09-07T15:54:13.126Z,8.00
2022-09-07T15:56:16.298Z,9.45
2022-09-07T15:58:17.954Z,8.52
2022-09-07T16:00:19.744Z,9.93
2022-09-07T16:04:42.900Z,7.15
2022-09-07T16:06:44.620Z,10.73
2022-09-07T16:08:46.774Z,14.85
2022-09-07T16:11:05.803Z,13.63
2022-09-07T16:13:16.300Z,7.30
2022-09-07T16:15:18.277Z,9.90
2022-09-07T16:17:28.145Z,11.65
2022-09-07T16:19:36.728Z,15.55
2022-09-07T16:21:42.899Z,7.68
2022-09-07T16:23:49.954Z,9.43
2022-09-07T16:26:00.273Z,10.27
2022-09-07T16:28:02.440Z,9.50
2022-09-07T16:30:05.321Z,11.38
2022-09-07T16:34:29.785Z,9.95
2022-09-07T16:36:31.387Z,9.88
2022-09-07T16:38:48.696Z,7.88
2022-09-07T16:40:51.040Z,11.70
2022-09-07T16:42:52.929Z,11.98
2022-09-07T16:44:54.886Z,11.50
2022-09-07T16:46:56.758Z,14.50
2022-09-07T16:48:58.255Z,12.80
2022-09-07T16:51:02.661Z,15.05
2022-09-07T16:53:04.536Z,12.00
2022-09-07T16:55:06.481Z,9.82
2022-09-07T16:57:08.335Z,11.52
2022-09-07T16:59:14.083Z,12.93
2022-09-07T17:01:18.574Z,16.20
2022-09-07T17:03:20.130Z,28.80
2022-09-07T17:05:21.659Z,21.83
2022-09-07T17:07:23.202Z,26.67
2022-09-07T17:09:26.828Z,36.35
2022-09-07T17:11:33.540Z,27.70
2022-09-07T17:13:36.707Z,27.05
2022-09-07T17:15:38.200Z,31.23
2022-09-07T17:17:39.715Z,34.78
2022-09-07T17:19:41.505Z,32.00
2022-09-07T17:21:43.268Z,29.40
2022-09-07T17:23:51.918Z,38.72
2022-09-07T17:26:11.004Z,33.53
2022-09-07T17:28:15.166Z,31.95
2022-09-07T17:30:16.816Z,30.17
2022-09-07T17:32:25.961Z,39.35
2022-09-07T17:34:29.555Z,37.67
2022-09-07T17:36:31.433Z,36.45
2022-09-07T17:40:55.222Z,55.30
2022-09-07T17:45:18.333Z,46.78
2022-09-07T17:47:20.202Z,56.75
2022-09-07T17:49:21.698Z,48.67
2022-09-07T17:51:26.479Z,52.40
2022-09-07T17:53:27.995Z,40.72
2022-09-07T17:55:31.598Z,40.38
2022-09-07T17:57:34.852Z,35.92
2022-09-07T18:01:57.965Z,40.58
2022-09-07T18:03:59.467Z,53.83
2022-09-07T18:06:00.985Z,46.92
2022-09-07T18:08:02.766Z,44.72
2022-09-07T18:10:04.453Z,41.55
2022-09-07T18:12:06.229Z,24.35
2022-09-07T18:14:07.738Z,27.83
2022-09-07T18:16:16.466Z,38.40
2022-09-07T18:18:20.215Z,40.50
2022-09-07T18:20:24.119Z,44.20
2022-09-07T18:22:25.829Z,33.67
2022-09-07T18:24:28.180Z,30.48
2022-09-07T18:26:29.717Z,38.58
2022-09-07T18:30:52.769Z,47.00
2022-09-07T18:32:59.201Z,43.58
2022-09-07T18:35:00.941Z,54.33
2022-09-07T18:37:02.523Z,55.55
2022-09-07T18:39:04.880Z,39.58
2022-09-07T18:41:11.482Z,42.38
2022-09-07T18:43:13.381Z,36.10
2022-09-07T18:45:30.459Z,31.17
2022-09-07T18:47:32.045Z,29.95
2022-09-07T18:49:33.574Z,27.83
2022-09-07T18:52:51.496Z,34.58
2022-09-07T18:53:57.160Z,27.00
2022-09-07T18:56:19.210Z,25.85
2022-09-07T18:58:21.103Z,24.85
2022-09-07T19:00:23.127Z,24.83
2022-09-07T19:02:24.791Z,23.63
2022-09-07T19:05:49.161Z,19.75
2022-09-07T19:06:47.891Z,19.23
2022-09-07T19:08:49.490Z,26.52
2022-09-07T19:10:51.023Z,19.00
2022-09-07T19:12:52.599Z,16.33
2022-09-07T19:14:54.149Z,15.20
2022-09-07T19:16:55.742Z,13.63
2022-09-07T19:18:59.399Z,18.55
2022-09-07T19:21:14.861Z,14.40
2022-09-07T19:23:18.292Z,21.33
2022-09-07T19:25:19.802Z,21.17
2022-09-07T19:27:21.289Z,21.67
2022-09-07T19:29:23.399Z,23.48
2022-09-07T19:31:26.758Z,19.35
2022-09-07T19:33:28.280Z,23.30
2022-09-07T19:35:30.180Z,20.48
2022-09-07T19:37:32.787Z,25.33
2022-09-07T19:39:34.500Z,21.13
2022-09-07T19:41:37.371Z,24.65
2022-09-07T19:43:38.883Z,29.92
2022-09-07T19:45:40.608Z,24.25
2022-09-07T19:47:42.118Z,29.25
2022-09-07T19:49:43.654Z,26.52
2022-09-07T19:51:45.382Z,24.67
2022-09-07T19:53:47.163Z,28.02
2022-09-07T19:55:48.793Z,23.30
2022-09-07T19:57:52.039Z,26.98
2022-09-07T19:59:56.691Z,32.15
2022-09-07T20:01:58.268Z,24.85
2022-09-07T20:04:03.317Z,26.02
2022-09-07T20:06:09.574Z,24.25
2022-09-07T20:08:11.073Z,27.73
2022-09-07T20:10:12.606Z,34.63
2022-09-07T20:12:14.126Z,30.40
2022-09-07T20:14:16.468Z,20.88
2022-09-07T20:16:19.488Z,22.98
2022-09-07T20:18:21.042Z,21.83
2022-09-07T20:20:23.480Z,26.73
2022-09-07T20:22:25.000Z,34.20
2022-09-07T20:24:26.595Z,39.10
2022-09-07T20:26:28.087Z,29.92
2022-09-07T20:28:29.886Z,29.38
2022-09-07T20:30:33.704Z,24.25
2022-09-07T20:32:35.438Z,30.05
2022-09-07T20:34:37.611Z,30.20
2022-09-07T20:36:39.232Z,40.35
2022-09-07T20:38:41.465Z,40.10
2022-09-07T20:40:53.365Z,29.95
2022-09-07T20:42:54.892Z,35.17
2022-09-07T20:44:56.400Z,50.35
2022-09-07T20:46:58.294Z,42.75
2022-09-07T20:49:01.800Z,35.13
2022-09-07T20:51:04.301Z,35.45
2022-09-07T20:53:06.076Z,38.92
2022-09-07T20:55:08.001Z,30.02
2022-09-07T20:57:09.542Z,21.45
2022-09-07T20:59:12.255Z,20.70
2022-09-07T21:01:16.140Z,26.58
2022-09-07T21:03:17.689Z,31.23
2022-09-07T21:05:19.303Z,29.92
2022-09-07T21:07:20.816Z,23.38
2022-09-07T21:09:22.296Z,28.85
2022-09-07T21:11:26.567Z,22.42
2022-09-07T21:13:28.069Z,20.65
2022-09-07T21:15:29.612Z,21.77
2022-09-07T21:17:31.161Z,20.58
2022-09-07T21:19:32.690Z,22.80
2022-09-07T21:21:38.536Z,18.17
2022-09-07T21:23:40.570Z,21.23
2022-09-07T21:25:43.753Z,21.13
2022-09-07T21:27:45.312Z,20.67
2022-09-07T21:29:46.806Z,21.65
2022-09-07T21:31:48.521Z,18.88
2022-09-07T21:33:54.456Z,23.10
2022-09-07T21:35:56.037Z,26.70
2022-09-07T21:37:57.544Z,27.02
2022-09-07T21:39:59.223Z,27.80
2022-09-07T21:42:00.788Z,30.45
2022-09-07T21:44:03.102Z,31.77
2022-09-07T21:46:16.433Z,28.80
2022-09-07T21:48:18.017Z,21.40
2022-09-07T21:50:19.564Z,23.33
2022-09-07T21:52:21.065Z,19.00
2022-09-07T21:54:22.695Z,19.60
2022-09-07T21:56:24.460Z,22.85
2022-09-07T21:58:26.904Z,19.75
2022-09-07T22:00:28.425Z,22.92
2022-09-07T22:02:30.008Z,25.40
2022-09-07T22:04:31.598Z,21.75
2022-09-07T22:06:33.623Z,25.63
2022-09-07T22:08:36.061Z,22.50
2022-09-07T22:10:37.548Z,21.95
2022-09-07T22:12:39.098Z,17.35
2022-09-07T22:14:40.600Z,14.13
2022-09-07T22:16:42.127Z,18.67
2022-09-07T22:18:45.237Z,13.88
2022-09-07T22:20:46.758Z,20.73
2022-09-07T22:22:48.307Z,13.63
2022-09-07T22:24:49.867Z,17.05
2022-09-07T22:26:52.670Z,15.55
2022-09-07T22:28:54.892Z,12.27
2022-09-07T22:30:57.182Z,10.70
2022-09-07T22:32:58.719Z,12.45
2022-09-07T22:35:00.220Z,13.45
2022-09-07T22:37:01.713Z,13.82
2022-09-07T22:39:05.835Z,11.13
2022-09-07T22:41:12.945Z,10.60
2022-09-07T22:43:14.470Z,9.93
2022-09-07T22:45:16.090Z,12.30
2022-09-07T22:47:17.605Z,7.63
2022-09-07T22:49:19.179Z,11.55
2022-09-07T22:51:20.733Z,10.10
2022-09-07T22:53:22.718Z,9.65
2022-09-07T22:55:24.198Z,15.30
2022-09-07T22:57:25.773Z,9.05
2022-09-07T22:59:27.313Z,11.25
2022-09-07T23:01:30.471Z,14.82
2022-09-07T23:03:33.865Z,10.75
2022-09-07T23:05:38.760Z,11.13
2022-09-07T23:07:40.265Z,9.90
2022-09-07T23:09:41.803Z,9.90
2022-09-07T23:11:43.893Z,11.73
2022-09-07T23:13:45.614Z,7.90
2022-09-07T23:15:47.408Z,10.48
2022-09-07T23:17:50.766Z,9.50
2022-09-07T23:19:52.285Z,12.02
2022-09-07T23:21:53.780Z,11.07
2022-09-07T23:23:57.488Z,9.90
2022-09-07T23:26:02.143Z,8.30
2022-09-07T23:28:05.046Z,8.63
2022-09-07T23:30:07.200Z,10.93
2022-09-07T23:32:08.685Z,10.75
2022-09-07T23:34:10.205Z,11.68
2022-09-07T23:36:11.716Z,11.13
2022-09-07T23:38:13.213Z,11.93
2022-09-07T23:40:14.841Z,15.25
2022-09-07T23:42:16.451Z,8.77
2022-09-07T23:44:18.017Z,8.50
2022-09-07T23:46:20.144Z,7.68
2022-09-07T23:48:22.913Z,9.43
2022-09-07T23:50:24.443Z,13.18
2022-09-07T23:52:25.969Z,12.88
2022-09-07T23:54:27.478Z,9.65
2022-09-07T23:56:29.327Z,10.68
2022-09-07T23:58:30.957Z,10.13
